Time,TemperatureF,DewpointF,PressureIn,WindDirection,WindDirectionDegrees,WindSpeedMPH,WindSpeedGustMPH,Humidity,HourlyPrecipIn,Conditions,Clouds,dailyrainin,SolarRadiationWatts/m^2,SoftwareType,DateUTC
2013-02-28 00:01:00,18.0,14.0,-100.00,WSW,248,2.0,5.0,85,0.00,,,0.00,0.000000,,2013-02-28 07:01:00,
2013-02-28 00:11:00,18.0,14.0,-100.00,WSW,248,2.0,5.0,85,0.00,,,0.00,0.000000,,2013-02-28 07:11:00,
2013-02-28 00:21:00,18.0,14.0,-100.00,WSW,248,2.0,5.0,85,0.00,,,0.00,0.000000,,2013-02-28 07:21:00,
2013-02-28 00:32:00,18.0,14.0,-100.00,WSW,248,2.0,5.0,85,0.00,,,0.00,0.000000,,2013-02-28 07:32:00,
2013-02-28 00:40:00,17.0,13.0,-100.00,NNW,329,0.0,2.0,85,0.00,,,0.00,0.000000,,2013-02-28 07:40:00,
2013-02-28 01:01:00,17.0,13.0,-100.00,NNW,329,0.0,2.0,85,0.00,,,0.00,0.000000,,2013-02-28 08:01:00,
2013-02-28 01:11:00,17.0,13.0,-100.00,NNW,329,0.0,2.0,85,0.00,,,0.00,0.000000,,2013-02-28 08:11:00,
2013-02-28 01:22:00,17.0,13.0,-100.00,NNW,329,0.0,2.0,85,0.00,,,0.00,0.000000,,2013-02-28 08:22:00,
2013-02-28 01:32:00,17.0,13.0,-100.00,NNW,329,0.0,2.0,85,0.00,,,0.00,0.000000,,2013-02-28 08:32:00,
2013-02-28 01:40:00,17.0,13.0,-100.00,North,357,0.0,2.0,83,0.00,,,0.00,0.000000,,2013-02-28 08:40:00,
2013-02-28 02:03:00,17.0,13.0,-100.00,North,357,0.0,2.0,83,0.00,,,0.00,0.000000,,2013-02-28 09:03:00,
2013-02-28 02:11:00,17.0,13.0,-100.00,North,357,0.0,2.0,83,0.00,,,0.00,0.000000,,2013-02-28 09:11:00,
2013-02-28 02:22:00,17.0,13.0,-100.00,North,357,0.0,2.0,83,0.00,,,0.00,0.000000,,2013-02-28 09:22:00,
2013-02-28 02:32:00,17.0,13.0,-100.00,North,357,0.0,2.0,83,0.00,,,0.00,0.000000,,2013-02-28 09:32:00,
2013-02-28 02:40:00,17.0,12.0,-100.00,East,101,1.0,3.0,81,0.00,,,0.00,0.000000,,2013-02-28 09:40:00,
2013-02-28 03:02:00,17.0,12.0,-100.00,East,101,1.0,3.0,81,0.00,,,0.00,0.000000,,2013-02-28 10:02:00,
2013-02-28 03:11:00,17.0,12.0,-100.00,East,101,1.0,3.0,81,0.00,,,0.00,0.000000,,2013-02-28 10:11:00,
2013-02-28 03:22:00,17.0,12.0,-100.00,East,101,1.0,3.0,81,0.00,,,0.00,0.000000,,2013-02-28 10:22:00,
2013-02-28 03:32:00,17.0,12.0,-100.00,East,101,1.0,3.0,81,0.00,,,0.00,0.000000,,2013-02-28 10:32:00,
2013-02-28 03:40:00,18.0,13.0,-100.00,ENE,73,0.0,2.0,82,0.00,,,0.00,0.000000,,2013-02-28 10:40:00,
2013-02-28 04:01:00,18.0,13.0,-100.00,ENE,73,0.0,2.0,82,0.00,,,0.00,0.000000,,2013-02-28 11:01:00,
2013-02-28 04:11:00,18.0,13.0,-100.00,ENE,73,0.0,2.0,82,0.00,,,0.00,0.000000,,2013-02-28 11:11:00,
2013-02-28 04:22:00,18.0,13.0,-100.00,ENE,73,0.0,2.0,82,0.00,,,0.00,0.000000,,2013-02-28 11:22:00,
2013-02-28 04:32:00,18.0,13.0,-100.00,ENE,73,0.0,2.0,82,0.00,,,0.00,0.000000,,2013-02-28 11:32:00,
2013-02-28 04:40:00,18.0,13.0,-100.00,SE,137,0.0,3.0,82,0.00,,,0.00,0.000000,,2013-02-28 11:40:00,
2013-02-28 05:02:00,18.0,13.0,-100.00,SE,137,0.0,3.0,82,0.00,,,0.00,0.000000,,2013-02-28 12:02:00,
2013-02-28 05:11:00,18.0,13.0,-100.00,SE,137,0.0,3.0,82,0.00,,,0.00,0.000000,,2013-02-28 12:11:00,
2013-02-28 05:22:00,18.0,13.0,-100.00,SE,137,0.0,3.0,82,0.00,,,0.00,0.000000,,2013-02-28 12:22:00,
2013-02-28 05:32:00,18.0,13.0,-100.00,SE,137,0.0,3.0,82,0.00,,,0.00,0.000000,,2013-02-28 12:32:00,
2013-02-28 05:40:00,17.0,12.0,-100.00,SE,127,0.0,1.0,82,0.00,,,0.00,0.000000,,2013-02-28 12:40:00,
2013-02-28 06:02:00,17.0,12.0,-100.00,SE,127,0.0,1.0,82,0.00,,,0.00,0.000000,,2013-02-28 13:02:00,
2013-02-28 06:11:00,17.0,12.0,-100.00,SE,127,0.0,1.0,82,0.00,,,0.00,0.000000,,2013-02-28 13:11:00,
2013-02-28 06:22:00,17.0,12.0,-100.00,SE,127,0.0,1.0,82,0.00,,,0.00,0.000000,,2013-02-28 13:22:00,
2013-02-28 06:32:00,17.0,12.0,-100.00,SE,127,0.0,1.0,82,0.00,,,0.00,0.000000,,2013-02-28 13:32:00,
2013-02-28 06:40:00,16.0,11.0,-100.00,East,87,0.0,1.0,82,0.00,,,0.00,0.000000,,2013-02-28 13:40:00,
2013-02-28 07:01:00,16.0,11.0,-100.00,East,87,0.0,1.0,82,0.00,,,0.00,0.000000,,2013-02-28 14:01:00,
2013-02-28 07:11:00,16.0,11.0,-100.00,East,87,0.0,1.0,82,0.00,,,0.00,0.000000,,2013-02-28 14:11:00,
2013-02-28 07:22:00,16.0,11.0,-100.00,East,87,0.0,1.0,82,0.00,,,0.00,0.000000,,2013-02-28 14:22:00,
2013-02-28 07:32:00,16.0,11.0,-100.00,East,87,0.0,1.0,82,0.00,,,0.00,0.000000,,2013-02-28 14:32:00,
2013-02-28 07:40:00,20.0,14.0,-100.00,NW,324,1.0,3.0,78,0.00,,,0.00,39.000000,,2013-02-28 14:40:00,
2013-02-28 08:02:00,20.0,14.0,-100.00,NW,324,1.0,3.0,78,0.00,,,0.00,39.000000,,2013-02-28 15:02:00,
2013-02-28 08:11:00,20.0,14.0,-100.00,NW,324,1.0,3.0,78,0.00,,,0.00,39.000000,,2013-02-28 15:11:00,
2013-02-28 08:21:00,20.0,14.0,-100.00,NW,324,1.0,3.0,78,0.00,,,0.00,39.000000,,2013-02-28 15:21:00,
2013-02-28 08:32:00,20.0,14.0,-100.00,NW,324,1.0,3.0,78,0.00,,,0.00,39.000000,,2013-02-28 15:32:00,
2013-02-28 08:40:00,25.0,19.0,-100.00,SSW,193,1.0,4.0,76,0.00,,,0.00,153.000000,,2013-02-28 15:40:00,
2013-02-28 09:02:00,25.0,19.0,-100.00,SSW,193,1.0,4.0,76,0.00,,,0.00,153.000000,,2013-02-28 16:02:00,
2013-02-28 09:12:00,25.0,19.0,-100.00,SSW,193,1.0,4.0,76,0.00,,,0.00,153.000000,,2013-02-28 16:12:00,
2013-02-28 09:22:00,25.0,19.0,-100.00,SSW,193,1.0,4.0,76,0.00,,,0.00,153.000000,,2013-02-28 16:22:00,
2013-02-28 09:32:00,25.0,19.0,-100.00,SSW,193,1.0,4.0,76,0.00,,,0.00,153.000000,,2013-02-28 16:32:00,
2013-02-28 09:40:00,31.0,23.0,-100.00,South,187,3.0,7.0,72,0.00,,,0.00,276.000000,,2013-02-28 16:40:00,
2013-02-28 10:02:00,31.0,23.0,-100.00,South,187,3.0,7.0,72,0.00,,,0.00,276.000000,,2013-02-28 17:02:00,
2013-02-28 10:12:00,31.0,23.0,-100.00,South,187,3.0,7.0,72,0.00,,,0.00,276.000000,,2013-02-28 17:12:00,
2013-02-28 10:22:00,31.0,23.0,-100.00,South,187,3.0,7.0,72,0.00,,,0.00,276.000000,,2013-02-28 17:22:00,
2013-02-28 10:32:00,31.0,23.0,-100.00,South,187,3.0,7.0,72,0.00,,,0.00,276.000000,,2013-02-28 17:32:00,
2013-02-28 10:40:00,39.0,22.0,-100.00,SSW,210,3.0,7.0,50,0.00,,,0.00,529.000000,,2013-02-28 17:40:00,
2013-02-28 11:02:00,39.0,22.0,-100.00,SSW,210,3.0,7.0,50,0.00,,,0.00,529.000000,,2013-02-28 18:02:00,
2013-02-28 11:11:00,39.0,22.0,-100.00,SSW,210,3.0,7.0,50,0.00,,,0.00,529.000000,,2013-02-28 18:11:00,
2013-02-28 11:22:00,39.0,22.0,-100.00,SSW,210,3.0,7.0,50,0.00,,,0.00,529.000000,,2013-02-28 18:22:00,
2013-02-28 11:32:00,39.0,22.0,-100.00,SSW,210,3.0,7.0,50,0.00,,,0.00,529.000000,,2013-02-28 18:32:00,
2013-02-28 11:40:00,42.0,20.0,-100.00,West,260,4.0,8.0,41,0.00,,,0.00,692.000000,,2013-02-28 18:40:00,
2013-02-28 12:02:00,42.0,20.0,-100.00,West,260,4.0,8.0,41,0.00,,,0.00,692.000000,,2013-02-28 19:02:00,
2013-02-28 12:11:00,42.0,20.0,-100.00,West,260,4.0,8.0,41,0.00,,,0.00,692.000000,,2013-02-28 19:11:00,
2013-02-28 12:21:00,42.0,20.0,-100.00,West,260,4.0,8.0,41,0.00,,,0.00,692.000000,,2013-02-28 19:21:00,
2013-02-28 12:32:00,42.0,20.0,-100.00,West,260,4.0,8.0,41,0.00,,,0.00,692.000000,,2013-02-28 19:32:00,
2013-02-28 12:40:00,41.0,20.0,-100.00,West,261,8.0,14.0,42,0.00,,,0.00,685.000000,,2013-02-28 19:40:00,
2013-02-28 13:01:00,41.0,20.0,-100.00,West,261,8.0,14.0,42,0.00,,,0.00,685.000000,,2013-02-28 20:01:00,
2013-02-28 13:12:00,41.0,20.0,-100.00,West,261,8.0,14.0,42,0.00,,,0.00,685.000000,,2013-02-28 20:12:00,
2013-02-28 13:22:00,41.0,20.0,-100.00,West,261,8.0,14.0,42,0.00,,,0.00,685.000000,,2013-02-28 20:22:00,
2013-02-28 13:32:00,41.0,20.0,-100.00,West,261,8.0,14.0,42,0.00,,,0.00,685.000000,,2013-02-28 20:32:00,
2013-02-28 13:40:00,41.0,19.0,-100.00,NW,304,11.0,16.0,41,0.00,,,0.00,447.000000,,2013-02-28 20:40:00,
2013-02-28 14:02:00,41.0,19.0,-100.00,NW,304,11.0,16.0,41,0.00,,,0.00,447.000000,,2013-02-28 21:02:00,
2013-02-28 14:11:00,41.0,19.0,-100.00,NW,304,11.0,16.0,41,0.00,,,0.00,447.000000,,2013-02-28 21:11:00,
2013-02-28 14:22:00,41.0,19.0,-100.00,NW,304,11.0,16.0,41,0.00,,,0.00,447.000000,,2013-02-28 21:22:00,
2013-02-28 14:32:00,41.0,19.0,-100.00,NW,304,11.0,16.0,41,0.00,,,0.00,447.000000,,2013-02-28 21:32:00,
2013-02-28 14:40:00,41.0,15.0,-100.00,WNW,289,12.0,19.0,34,0.00,,,0.00,416.000000,,2013-02-28 21:40:00,
2013-02-28 15:01:00,41.0,15.0,-100.00,WNW,289,12.0,19.0,34,0.00,,,0.00,416.000000,,2013-02-28 22:01:00,
2013-02-28 15:11:00,41.0,15.0,-100.00,WNW,289,12.0,19.0,34,0.00,,,0.00,416.000000,,2013-02-28 22:11:00,
2013-02-28 15:22:00,41.0,15.0,-100.00,WNW,289,12.0,19.0,34,0.00,,,0.00,416.000000,,2013-02-28 22:22:00,
2013-02-28 15:32:00,41.0,15.0,-100.00,WNW,289,12.0,19.0,34,0.00,,,0.00,416.000000,,2013-02-28 22:32:00,
2013-02-28 15:40:00,43.0,17.0,-100.00,NW,305,12.0,20.0,34,0.00,,,0.00,370.000000,,2013-02-28 22:40:00,
2013-02-28 16:01:00,43.0,17.0,-100.00,NW,305,12.0,20.0,34,0.00,,,0.00,370.000000,,2013-02-28 23:01:00,
2013-02-28 16:11:00,43.0,17.0,-100.00,NW,305,12.0,20.0,34,0.00,,,0.00,370.000000,,2013-02-28 23:11:00,
2013-02-28 16:22:00,43.0,17.0,-100.00,NW,305,12.0,20.0,34,0.00,,,0.00,370.000000,,2013-02-28 23:22:00,
2013-02-28 16:32:00,43.0,17.0,-100.00,NW,305,12.0,20.0,34,0.00,,,0.00,370.000000,,2013-02-28 23:32:00,
2013-02-28 16:40:00,39.0,16.0,-100.00,NW,314,7.0,21.0,39,0.00,,,0.00,110.000000,,2013-02-28 23:40:00,
2013-02-28 17:01:00,39.0,16.0,-100.00,NW,314,7.0,21.0,39,0.00,,,0.00,110.000000,,2013-03-01 00:01:00,
2013-02-28 17:11:00,39.0,16.0,-100.00,NW,314,7.0,21.0,39,0.00,,,0.00,110.000000,,2013-03-01 00:11:00,
2013-02-28 17:22:00,39.0,16.0,-100.00,NW,314,7.0,21.0,39,0.00,,,0.00,110.000000,,2013-03-01 00:22:00,
2013-02-28 17:32:00,39.0,16.0,-100.00,NW,314,7.0,21.0,39,0.00,,,0.00,110.000000,,2013-03-01 00:32:00,
2013-02-28 17:40:00,38.0,20.0,-100.00,WNW,297,8.0,16.0,47,0.00,,,0.00,33.000000,,2013-03-01 00:40:00,
2013-02-28 18:01:00,38.0,20.0,-100.00,WNW,297,8.0,16.0,47,0.00,,,0.00,33.000000,,2013-03-01 01:01:00,
2013-02-28 18:11:00,38.0,20.0,-100.00,WNW,297,8.0,16.0,47,0.00,,,0.00,33.000000,,2013-03-01 01:11:00,
2013-02-28 18:21:00,38.0,20.0,-100.00,WNW,297,8.0,16.0,47,0.00,,,0.00,33.000000,,2013-03-01 01:21:00,
2013-02-28 18:32:00,38.0,20.0,-100.00,WNW,297,8.0,16.0,47,0.00,,,0.00,33.000000,,2013-03-01 01:32:00,
2013-02-28 18:40:00,32.0,23.0,-100.00,NW,323,5.0,21.0,68,0.00,,,0.00,0.000000,,2013-03-01 01:40:00,
2013-02-28 19:01:00,32.0,23.0,-100.00,NW,323,5.0,21.0,68,0.00,,,0.00,0.000000,,2013-03-01 02:01:00,
2013-02-28 19:11:00,32.0,23.0,-100.00,NW,323,5.0,21.0,68,0.00,,,0.00,0.000000,,2013-03-01 02:11:00,
2013-02-28 19:21:00,32.0,23.0,-100.00,NW,323,5.0,21.0,68,0.00,,,0.00,0.000000,,2013-03-01 02:21:00,
2013-02-28 19:32:00,32.0,23.0,-100.00,NW,323,5.0,21.0,68,0.00,,,0.00,0.000000,,2013-03-01 02:32:00,
2013-02-28 19:40:00,30.0,22.0,-100.00,NW,315,3.0,6.0,73,0.00,,,0.00,0.000000,,2013-03-01 02:40:00,
2013-02-28 20:02:00,30.0,22.0,-100.00,NW,315,3.0,6.0,73,0.00,,,0.00,0.000000,,2013-03-01 03:02:00,
2013-02-28 20:11:00,30.0,22.0,-100.00,NW,315,3.0,6.0,73,0.00,,,0.00,0.000000,,2013-03-01 03:11:00,
2013-02-28 20:21:00,30.0,22.0,-100.00,NW,315,3.0,6.0,73,0.00,,,0.00,0.000000,,2013-03-01 03:21:00,
2013-02-28 20:32:00,30.0,22.0,-100.00,NW,315,3.0,6.0,73,0.00,,,0.00,0.000000,,2013-03-01 03:32:00,
2013-02-28 20:40:00,30.0,22.0,-100.00,West,273,3.0,5.0,72,0.00,,,0.00,0.000000,,2013-03-01 03:40:00,
2013-02-28 21:01:00,30.0,22.0,-100.00,West,273,3.0,5.0,72,0.00,,,0.00,0.000000,,2013-03-01 04:01:00,
2013-02-28 21:11:00,30.0,22.0,-100.00,West,273,3.0,5.0,72,0.00,,,0.00,0.000000,,2013-03-01 04:11:00,
2013-02-28 21:21:00,30.0,22.0,-100.00,West,273,3.0,5.0,72,0.00,,,0.00,0.000000,,2013-03-01 04:21:00,
2013-02-28 21:32:00,30.0,22.0,-100.00,West,273,3.0,5.0,72,0.00,,,0.00,0.000000,,2013-03-01 04:32:00,
2013-02-28 21:40:00,33.0,23.0,-100.00,WNW,289,6.0,10.0,67,0.00,,,0.00,0.000000,,2013-03-01 04:40:00,
2013-02-28 22:02:00,33.0,23.0,-100.00,WNW,289,6.0,10.0,67,0.00,,,0.00,0.000000,,2013-03-01 05:02:00,
2013-02-28 22:11:00,33.0,23.0,-100.00,WNW,289,6.0,10.0,67,0.00,,,0.00,0.000000,,2013-03-01 05:11:00,
2013-02-28 22:22:00,33.0,23.0,-100.00,WNW,289,6.0,10.0,67,0.00,,,0.00,0.000000,,2013-03-01 05:22:00,
2013-02-28 22:32:00,33.0,23.0,-100.00,WNW,289,6.0,10.0,67,0.00,,,0.00,0.000000,,2013-03-01 05:32:00,
2013-02-28 22:40:00,33.0,23.0,-100.00,NW,319,6.0,13.0,66,0.00,,,0.00,0.000000,,2013-03-01 05:40:00,
2013-02-28 23:02:00,33.0,23.0,-100.00,NW,319,6.0,13.0,66,0.00,,,0.00,0.000000,,2013-03-01 06:02:00,
2013-02-28 23:11:00,33.0,23.0,-100.00,NW,319,6.0,13.0,66,0.00,,,0.00,0.000000,,2013-03-01 06:11:00,
2013-02-28 23:22:00,33.0,23.0,-100.00,NW,319,6.0,13.0,66,0.00,,,0.00,0.000000,,2013-03-01 06:22:00,
2013-02-28 23:32:00,33.0,23.0,-100.00,NW,319,6.0,13.0,66,0.00,,,0.00,0.000000,,2013-03-01 06:32:00,
2013-02-28 23:40:00,29.0,21.0,-100.00,WSW,253,5.0,7.0,71,0.00,,,-99.99,0.000000,,2013-03-01 06:40:00,